SLC weather

Salt Lake City International Airport
Salt Lake City, Utah, United States

Public forecast

Using degrees Fahrenheit for public forecast. Weather courtesy of forecast.io.

Current aviation weather report (METAR) for Salt Lake City International Airport

Retrieved 2019/10/23 00:54 UTC (33 minutes ago):

KSLC 230054Z 12003KT 10SM BKN070 15/00 A3021 RMK AO2 SLP208 T01500000

Aviation forecast (TAF) for Salt Lake City International Airport

Retrieved 2019-10-23 00:39 UTC (48 minutes ago):

TAF KSLC 222337Z 2300/2406 12005KT P6SM FEW060 BKN080 FM231200 15006KT P6SM SCT070 BKN180 FM231700 32011KT P6SM SCT060 BKN250 FM232000 32012G22KT P6SM SCT060 SCT250 FM240100 33009KT P6SM FEW060 FM240400 15006KT P6SM SKC